sensor_id;sensor_type;location;lat;lon;timestamp;P1;durP1;ratioP1;P2;durP2;ratioP2
26690;SDS011;14307;51.718;8.938;2022-08-19T00:01:59;30.48;;;27.75;;
26690;SDS011;14307;51.718;8.938;2022-08-19T00:04:28;28.40;;;25.90;;
26690;SDS011;14307;51.718;8.938;2022-08-19T00:06:58;30.65;;;27.88;;
26690;SDS011;14307;51.718;8.938;2022-08-19T00:09:26;30.65;;;27.50;;
26690;SDS011;14307;51.718;8.938;2022-08-19T00:11:56;32.67;;;29.30;;
26690;SDS011;14307;51.718;8.938;2022-08-19T00:14:24;29.67;;;27.08;;
26690;SDS011;14307;51.718;8.938;2022-08-19T00:16:52;30.02;;;27.20;;
26690;SDS011;14307;51.718;8.938;2022-08-19T00:19:20;31.15;;;28.55;;
26690;SDS011;14307;51.718;8.938;2022-08-19T00:21:48;32.38;;;29.17;;
26690;SDS011;14307;51.718;8.938;2022-08-19T00:24:15;32.92;;;29.45;;
26690;SDS011;14307;51.718;8.938;2022-08-19T00:26:44;31.10;;;27.98;;
26690;SDS011;14307;51.718;8.938;2022-08-19T00:29:14;31.63;;;28.50;;
26690;SDS011;14307;51.718;8.938;2022-08-19T00:31:43;32.80;;;29.63;;
26690;SDS011;14307;51.718;8.938;2022-08-19T00:34:11;31.30;;;28.33;;
26690;SDS011;14307;51.718;8.938;2022-08-19T00:36:39;31.38;;;28.73;;
26690;SDS011;14307;51.718;8.938;2022-08-19T00:39:06;33.83;;;30.42;;
26690;SDS011;14307;51.718;8.938;2022-08-19T00:41:34;33.25;;;30.13;;
26690;SDS011;14307;51.718;8.938;2022-08-19T00:46:40;32.45;;;29.45;;
26690;SDS011;14307;51.718;8.938;2022-08-19T00:51:47;32.00;;;28.95;;
26690;SDS011;14307;51.718;8.938;2022-08-19T00:54:17;32.60;;;29.48;;
26690;SDS011;14307;51.718;8.938;2022-08-19T00:56:53;32.60;;;29.20;;
26690;SDS011;14307;51.718;8.938;2022-08-19T00:59:21;32.70;;;29.52;;
26690;SDS011;14307;51.718;8.938;2022-08-19T01:02:08;32.17;;;29.10;;
26690;SDS011;14307;51.718;8.938;2022-08-19T01:04:35;32.90;;;29.73;;
26690;SDS011;14307;51.718;8.938;2022-08-19T01:07:02;34.38;;;30.80;;
26690;SDS011;14307;51.718;8.938;2022-08-19T01:09:29;33.22;;;30.33;;
26690;SDS011;14307;51.718;8.938;2022-08-19T01:11:56;34.75;;;31.55;;
26690;SDS011;14307;51.718;8.938;2022-08-19T01:14:23;36.13;;;32.38;;
26690;SDS011;14307;51.718;8.938;2022-08-19T01:16:50;35.80;;;32.17;;
26690;SDS011;14307;51.718;8.938;2022-08-19T01:19:23;35.88;;;32.35;;
26690;SDS011;14307;51.718;8.938;2022-08-19T01:21:59;34.87;;;31.87;;
26690;SDS011;14307;51.718;8.938;2022-08-19T01:24:40;35.30;;;31.98;;
26690;SDS011;14307;51.718;8.938;2022-08-19T01:27:15;34.92;;;31.58;;
26690;SDS011;14307;51.718;8.938;2022-08-19T01:29:43;34.10;;;30.85;;
26690;SDS011;14307;51.718;8.938;2022-08-19T01:32:12;34.45;;;31.17;;
26690;SDS011;14307;51.718;8.938;2022-08-19T01:34:59;33.35;;;30.17;;
26690;SDS011;14307;51.718;8.938;2022-08-19T01:37:28;34.33;;;31.10;;
26690;SDS011;14307;51.718;8.938;2022-08-19T01:39:56;32.10;;;28.73;;
26690;SDS011;14307;51.718;8.938;2022-08-19T01:42:23;34.10;;;30.45;;
26690;SDS011;14307;51.718;8.938;2022-08-19T01:44:56;36.05;;;31.35;;
26690;SDS011;14307;51.718;8.938;2022-08-19T01:47:23;33.55;;;30.10;;
26690;SDS011;14307;51.718;8.938;2022-08-19T01:49:50;34.50;;;30.75;;
26690;SDS011;14307;51.718;8.938;2022-08-19T01:52:17;33.95;;;30.73;;
26690;SDS011;14307;51.718;8.938;2022-08-19T01:54:44;33.22;;;29.90;;
26690;SDS011;14307;51.718;8.938;2022-08-19T01:57:11;34.20;;;30.90;;
26690;SDS011;14307;51.718;8.938;2022-08-19T01:59:40;36.50;;;32.38;;
26690;SDS011;14307;51.718;8.938;2022-08-19T02:02:09;37.03;;;33.05;;
26690;SDS011;14307;51.718;8.938;2022-08-19T02:04:36;36.00;;;32.17;;
26690;SDS011;14307;51.718;8.938;2022-08-19T02:07:07;33.88;;;30.77;;
26690;SDS011;14307;51.718;8.938;2022-08-19T02:09:34;33.33;;;29.95;;
26690;SDS011;14307;51.718;8.938;2022-08-19T02:12:01;34.15;;;30.60;;
26690;SDS011;14307;51.718;8.938;2022-08-19T02:14:29;36.08;;;32.25;;
26690;SDS011;14307;51.718;8.938;2022-08-19T02:16:56;39.15;;;31.58;;
26690;SDS011;14307;51.718;8.938;2022-08-19T02:19:22;33.80;;;30.38;;
26690;SDS011;14307;51.718;8.938;2022-08-19T02:21:49;35.20;;;31.27;;
26690;SDS011;14307;51.718;8.938;2022-08-19T02:24:16;37.08;;;31.65;;
26690;SDS011;14307;51.718;8.938;2022-08-19T02:26:43;39.47;;;34.55;;
26690;SDS011;14307;51.718;8.938;2022-08-19T02:29:10;38.35;;;33.95;;
26690;SDS011;14307;51.718;8.938;2022-08-19T02:31:37;37.95;;;33.45;;
26690;SDS011;14307;51.718;8.938;2022-08-19T02:34:04;36.13;;;31.80;;
26690;SDS011;14307;51.718;8.938;2022-08-19T02:36:30;37.67;;;32.58;;
26690;SDS011;14307;51.718;8.938;2022-08-19T02:38:57;36.83;;;31.17;;
26690;SDS011;14307;51.718;8.938;2022-08-19T02:41:25;35.33;;;31.73;;
26690;SDS011;14307;51.718;8.938;2022-08-19T02:43:55;35.60;;;31.40;;
26690;SDS011;14307;51.718;8.938;2022-08-19T02:46:44;38.22;;;31.30;;
26690;SDS011;14307;51.718;8.938;2022-08-19T02:52:04;35.38;;;30.70;;
26690;SDS011;14307;51.718;8.938;2022-08-19T02:54:31;39.83;;;31.23;;
26690;SDS011;14307;51.718;8.938;2022-08-19T02:56:58;35.35;;;31.40;;
26690;SDS011;14307;51.718;8.938;2022-08-19T02:59:25;35.60;;;30.67;;
26690;SDS011;14307;51.718;8.938;2022-08-19T03:01:52;33.05;;;29.55;;
26690;SDS011;14307;51.718;8.938;2022-08-19T03:04:19;36.17;;;29.30;;
26690;SDS011;14307;51.718;8.938;2022-08-19T03:06:46;34.72;;;30.90;;
26690;SDS011;14307;51.718;8.938;2022-08-19T03:09:14;34.58;;;30.30;;
26690;SDS011;14307;51.718;8.938;2022-08-19T03:11:41;33.70;;;30.10;;
26690;SDS011;14307;51.718;8.938;2022-08-19T03:14:08;37.20;;;30.95;;
26690;SDS011;14307;51.718;8.938;2022-08-19T03:16:43;38.95;;;32.10;;
26690;SDS011;14307;51.718;8.938;2022-08-19T03:19:14;33.78;;;30.13;;
26690;SDS011;14307;51.718;8.938;2022-08-19T03:21:43;39.53;;;32.15;;
26690;SDS011;14307;51.718;8.938;2022-08-19T03:24:10;44.47;;;33.53;;
26690;SDS011;14307;51.718;8.938;2022-08-19T03:26:39;41.53;;;33.05;;
26690;SDS011;14307;51.718;8.938;2022-08-19T03:29:08;42.45;;;33.03;;
26690;SDS011;14307;51.718;8.938;2022-08-19T03:31:39;40.63;;;33.63;;
26690;SDS011;14307;51.718;8.938;2022-08-19T03:34:19;45.88;;;33.63;;
26690;SDS011;14307;51.718;8.938;2022-08-19T03:36:48;44.28;;;33.88;;
26690;SDS011;14307;51.718;8.938;2022-08-19T03:39:15;44.13;;;34.85;;
26690;SDS011;14307;51.718;8.938;2022-08-19T03:41:44;44.72;;;34.05;;
26690;SDS011;14307;51.718;8.938;2022-08-19T03:44:14;47.72;;;35.45;;
26690;SDS011;14307;51.718;8.938;2022-08-19T03:46:45;56.35;;;37.80;;
26690;SDS011;14307;51.718;8.938;2022-08-19T03:49:14;52.35;;;36.95;;
26690;SDS011;14307;51.718;8.938;2022-08-19T03:51:44;58.00;;;38.78;;
26690;SDS011;14307;51.718;8.938;2022-08-19T03:54:13;52.72;;;38.85;;
26690;SDS011;14307;51.718;8.938;2022-08-19T03:56:41;51.13;;;35.97;;
26690;SDS011;14307;51.718;8.938;2022-08-19T03:59:10;56.67;;;38.60;;
26690;SDS011;14307;51.718;8.938;2022-08-19T04:01:40;57.55;;;39.28;;
26690;SDS011;14307;51.718;8.938;2022-08-19T04:04:07;56.28;;;39.63;;
26690;SDS011;14307;51.718;8.938;2022-08-19T04:06:35;53.00;;;37.47;;
26690;SDS011;14307;51.718;8.938;2022-08-19T04:09:06;55.15;;;38.70;;
26690;SDS011;14307;51.718;8.938;2022-08-19T04:11:46;66.20;;;42.78;;
26690;SDS011;14307;51.718;8.938;2022-08-19T04:14:17;74.80;;;44.72;;
26690;SDS011;14307;51.718;8.938;2022-08-19T04:16:46;75.00;;;42.75;;
26690;SDS011;14307;51.718;8.938;2022-08-19T04:19:14;77.20;;;43.25;;
26690;SDS011;14307;51.718;8.938;2022-08-19T04:21:44;73.88;;;42.80;;
26690;SDS011;14307;51.718;8.938;2022-08-19T04:24:12;68.40;;;43.63;;
26690;SDS011;14307;51.718;8.938;2022-08-19T04:26:40;77.88;;;44.83;;
26690;SDS011;14307;51.718;8.938;2022-08-19T04:29:08;82.18;;;44.20;;
26690;SDS011;14307;51.718;8.938;2022-08-19T04:31:40;97.65;;;47.47;;
26690;SDS011;14307;51.718;8.938;2022-08-19T04:34:12;79.97;;;44.38;;
26690;SDS011;14307;51.718;8.938;2022-08-19T04:36:41;84.72;;;48.75;;
26690;SDS011;14307;51.718;8.938;2022-08-19T04:39:12;93.93;;;49.65;;
26690;SDS011;14307;51.718;8.938;2022-08-19T04:41:42;101.97;;;51.22;;
26690;SDS011;14307;51.718;8.938;2022-08-19T04:44:29;94.75;;;49.67;;
26690;SDS011;14307;51.718;8.938;2022-08-19T04:47:00;87.00;;;47.08;;
26690;SDS011;14307;51.718;8.938;2022-08-19T04:49:36;90.97;;;50.22;;
26690;SDS011;14307;51.718;8.938;2022-08-19T04:52:03;108.80;;;52.85;;
26690;SDS011;14307;51.718;8.938;2022-08-19T04:54:30;98.60;;;52.28;;
26690;SDS011;14307;51.718;8.938;2022-08-19T04:57:05;133.77;;;59.83;;
26690;SDS011;14307;51.718;8.938;2022-08-19T04:59:34;119.13;;;55.78;;
26690;SDS011;14307;51.718;8.938;2022-08-19T05:02:02;82.72;;;48.55;;
26690;SDS011;14307;51.718;8.938;2022-08-19T05:04:29;81.45;;;46.55;;
26690;SDS011;14307;51.718;8.938;2022-08-19T05:06:58;85.03;;;49.80;;
26690;SDS011;14307;51.718;8.938;2022-08-19T05:09:28;81.93;;;46.70;;
26690;SDS011;14307;51.718;8.938;2022-08-19T05:12:36;84.40;;;48.55;;
26690;SDS011;14307;51.718;8.938;2022-08-19T05:15:04;84.88;;;48.97;;
26690;SDS011;14307;51.718;8.938;2022-08-19T05:17:32;84.28;;;46.35;;
26690;SDS011;14307;51.718;8.938;2022-08-19T05:20:04;80.22;;;49.40;;
26690;SDS011;14307;51.718;8.938;2022-08-19T05:22:51;82.25;;;46.97;;
26690;SDS011;14307;51.718;8.938;2022-08-19T05:25:19;78.57;;;45.88;;
26690;SDS011;14307;51.718;8.938;2022-08-19T05:27:47;78.35;;;46.13;;
26690;SDS011;14307;51.718;8.938;2022-08-19T05:30:14;96.72;;;49.90;;
26690;SDS011;14307;51.718;8.938;2022-08-19T05:32:42;82.78;;;47.17;;
26690;SDS011;14307;51.718;8.938;2022-08-19T05:35:09;81.75;;;47.58;;
26690;SDS011;14307;51.718;8.938;2022-08-19T05:37:37;73.88;;;45.10;;
26690;SDS011;14307;51.718;8.938;2022-08-19T05:40:06;76.30;;;43.78;;
26690;SDS011;14307;51.718;8.938;2022-08-19T05:42:34;74.57;;;46.58;;
26690;SDS011;14307;51.718;8.938;2022-08-19T05:45:01;77.57;;;45.15;;
26690;SDS011;14307;51.718;8.938;2022-08-19T05:47:28;78.68;;;47.03;;
26690;SDS011;14307;51.718;8.938;2022-08-19T05:49:55;80.70;;;46.95;;
26690;SDS011;14307;51.718;8.938;2022-08-19T05:52:22;80.63;;;46.85;;
26690;SDS011;14307;51.718;8.938;2022-08-19T05:54:52;80.82;;;45.65;;
26690;SDS011;14307;51.718;8.938;2022-08-19T05:57:21;82.22;;;46.10;;
26690;SDS011;14307;51.718;8.938;2022-08-19T05:59:49;73.93;;;44.22;;
26690;SDS011;14307;51.718;8.938;2022-08-19T06:02:24;80.28;;;44.92;;
26690;SDS011;14307;51.718;8.938;2022-08-19T06:04:51;77.78;;;44.22;;
26690;SDS011;14307;51.718;8.938;2022-08-19T06:07:18;70.90;;;43.10;;
26690;SDS011;14307;51.718;8.938;2022-08-19T06:09:45;69.28;;;44.08;;
26690;SDS011;14307;51.718;8.938;2022-08-19T06:12:27;70.88;;;42.25;;
26690;SDS011;14307;51.718;8.938;2022-08-19T06:14:58;73.80;;;44.00;;
26690;SDS011;14307;51.718;8.938;2022-08-19T06:17:30;71.35;;;41.60;;
26690;SDS011;14307;51.718;8.938;2022-08-19T06:19:58;67.45;;;41.70;;
26690;SDS011;14307;51.718;8.938;2022-08-19T06:22:25;61.90;;;40.33;;
26690;SDS011;14307;51.718;8.938;2022-08-19T06:24:53;69.95;;;42.55;;
26690;SDS011;14307;51.718;8.938;2022-08-19T06:27:21;67.22;;;43.67;;
26690;SDS011;14307;51.718;8.938;2022-08-19T06:29:48;67.72;;;42.92;;
26690;SDS011;14307;51.718;8.938;2022-08-19T06:32:16;65.90;;;41.00;;
26690;SDS011;14307;51.718;8.938;2022-08-19T06:34:44;69.90;;;42.28;;
26690;SDS011;14307;51.718;8.938;2022-08-19T06:37:11;65.00;;;41.60;;
26690;SDS011;14307;51.718;8.938;2022-08-19T06:39:40;74.63;;;44.08;;
26690;SDS011;14307;51.718;8.938;2022-08-19T06:42:09;82.38;;;48.28;;
26690;SDS011;14307;51.718;8.938;2022-08-19T06:44:38;86.97;;;50.50;;
26690;SDS011;14307;51.718;8.938;2022-08-19T06:47:09;78.50;;;48.42;;
26690;SDS011;14307;51.718;8.938;2022-08-19T06:49:52;78.97;;;46.33;;
26690;SDS011;14307;51.718;8.938;2022-08-19T06:52:26;82.38;;;47.83;;
26690;SDS011;14307;51.718;8.938;2022-08-19T06:54:53;76.68;;;49.92;;
26690;SDS011;14307;51.718;8.938;2022-08-19T06:57:25;77.78;;;50.67;;
26690;SDS011;14307;51.718;8.938;2022-08-19T06:59:52;78.82;;;50.40;;
26690;SDS011;14307;51.718;8.938;2022-08-19T07:02:20;72.63;;;49.70;;
26690;SDS011;14307;51.718;8.938;2022-08-19T07:04:47;74.47;;;49.63;;
26690;SDS011;14307;51.718;8.938;2022-08-19T07:07:18;63.25;;;44.95;;
26690;SDS011;14307;51.718;8.938;2022-08-19T07:09:47;63.22;;;45.50;;
26690;SDS011;14307;51.718;8.938;2022-08-19T07:12:26;57.78;;;44.53;;
26690;SDS011;14307;51.718;8.938;2022-08-19T07:14:55;48.25;;;43.00;;
26690;SDS011;14307;51.718;8.938;2022-08-19T07:17:23;48.63;;;41.63;;
26690;SDS011;14307;51.718;8.938;2022-08-19T07:19:51;48.92;;;42.97;;
26690;SDS011;14307;51.718;8.938;2022-08-19T07:22:20;51.67;;;41.92;;
26690;SDS011;14307;51.718;8.938;2022-08-19T07:24:50;44.10;;;39.67;;
26690;SDS011;14307;51.718;8.938;2022-08-19T07:27:18;46.28;;;41.50;;
26690;SDS011;14307;51.718;8.938;2022-08-19T07:29:50;43.35;;;39.20;;
26690;SDS011;14307;51.718;8.938;2022-08-19T07:32:23;41.25;;;37.35;;
26690;SDS011;14307;51.718;8.938;2022-08-19T07:34:54;43.88;;;39.17;;
26690;SDS011;14307;51.718;8.938;2022-08-19T07:37:22;38.10;;;34.58;;
26690;SDS011;14307;51.718;8.938;2022-08-19T07:39:54;39.65;;;35.63;;
26690;SDS011;14307;51.718;8.938;2022-08-19T07:42:21;34.90;;;32.08;;
26690;SDS011;14307;51.718;8.938;2022-08-19T07:44:48;34.92;;;31.90;;
26690;SDS011;14307;51.718;8.938;2022-08-19T07:47:16;36.58;;;33.38;;
26690;SDS011;14307;51.718;8.938;2022-08-19T07:50:05;35.40;;;31.98;;
26690;SDS011;14307;51.718;8.938;2022-08-19T07:52:34;34.35;;;31.45;;
26690;SDS011;14307;51.718;8.938;2022-08-19T07:55:05;35.53;;;32.83;;
26690;SDS011;14307;51.718;8.938;2022-08-19T07:57:53;33.50;;;31.00;;
26690;SDS011;14307;51.718;8.938;2022-08-19T08:00:20;35.53;;;32.47;;
26690;SDS011;14307;51.718;8.938;2022-08-19T08:02:50;35.85;;;32.85;;
26690;SDS011;14307;51.718;8.938;2022-08-19T08:05:21;34.20;;;31.73;;
26690;SDS011;14307;51.718;8.938;2022-08-19T08:08:10;33.58;;;30.88;;
26690;SDS011;14307;51.718;8.938;2022-08-19T08:10:59;35.60;;;32.33;;
26690;SDS011;14307;51.718;8.938;2022-08-19T08:13:26;35.42;;;32.67;;
26690;SDS011;14307;51.718;8.938;2022-08-19T08:15:54;36.30;;;33.17;;
26690;SDS011;14307;51.718;8.938;2022-08-19T08:18:22;36.45;;;33.78;;
26690;SDS011;14307;51.718;8.938;2022-08-19T08:20:53;37.05;;;34.10;;
26690;SDS011;14307;51.718;8.938;2022-08-19T08:23:21;35.40;;;32.67;;
26690;SDS011;14307;51.718;8.938;2022-08-19T08:25:53;35.80;;;32.90;;
26690;SDS011;14307;51.718;8.938;2022-08-19T08:28:23;37.17;;;34.10;;
26690;SDS011;14307;51.718;8.938;2022-08-19T08:30:51;36.97;;;34.22;;
26690;SDS011;14307;51.718;8.938;2022-08-19T08:33:22;38.97;;;35.67;;
26690;SDS011;14307;51.718;8.938;2022-08-19T08:36:01;39.72;;;36.60;;
26690;SDS011;14307;51.718;8.938;2022-08-19T08:38:31;41.28;;;37.50;;
26690;SDS011;14307;51.718;8.938;2022-08-19T08:43:47;37.67;;;34.83;;
26690;SDS011;14307;51.718;8.938;2022-08-19T08:51:42;41.03;;;37.50;;
26690;SDS011;14307;51.718;8.938;2022-08-19T08:54:21;41.13;;;37.78;;
26690;SDS011;14307;51.718;8.938;2022-08-19T08:56:51;39.17;;;36.13;;
26690;SDS011;14307;51.718;8.938;2022-08-19T08:59:30;39.05;;;36.25;;
26690;SDS011;14307;51.718;8.938;2022-08-19T09:02:00;38.50;;;35.55;;
26690;SDS011;14307;51.718;8.938;2022-08-19T09:04:27;37.90;;;35.20;;
26690;SDS011;14307;51.718;8.938;2022-08-19T09:07:00;36.40;;;33.67;;
26690;SDS011;14307;51.718;8.938;2022-08-19T09:10:04;38.38;;;35.40;;
26690;SDS011;14307;51.718;8.938;2022-08-19T09:15:42;38.47;;;35.28;;
26690;SDS011;14307;51.718;8.938;2022-08-19T09:20:44;37.25;;;34.28;;
26690;SDS011;14307;51.718;8.938;2022-08-19T09:23:13;37.00;;;34.30;;
26690;SDS011;14307;51.718;8.938;2022-08-19T09:25:40;37.10;;;34.38;;
26690;SDS011;14307;51.718;8.938;2022-08-19T09:28:07;35.78;;;32.97;;
26690;SDS011;14307;51.718;8.938;2022-08-19T09:30:48;33.33;;;31.02;;
26690;SDS011;14307;51.718;8.938;2022-08-19T09:33:18;34.05;;;31.65;;
26690;SDS011;14307;51.718;8.938;2022-08-19T09:35:45;34.35;;;31.92;;
26690;SDS011;14307;51.718;8.938;2022-08-19T09:38:18;32.70;;;30.40;;
26690;SDS011;14307;51.718;8.938;2022-08-19T09:40:46;31.80;;;29.60;;
26690;SDS011;14307;51.718;8.938;2022-08-19T09:43:13;32.05;;;29.95;;
26690;SDS011;14307;51.718;8.938;2022-08-19T09:45:39;31.02;;;28.90;;
26690;SDS011;14307;51.718;8.938;2022-08-19T09:48:06;30.75;;;28.50;;
26690;SDS011;14307;51.718;8.938;2022-08-19T09:50:36;30.65;;;28.65;;
26690;SDS011;14307;51.718;8.938;2022-08-19T09:53:17;30.40;;;28.33;;
26690;SDS011;14307;51.718;8.938;2022-08-19T09:55:44;29.48;;;27.58;;
26690;SDS011;14307;51.718;8.938;2022-08-19T09:58:11;28.60;;;26.85;;
26690;SDS011;14307;51.718;8.938;2022-08-19T10:00:38;29.73;;;27.77;;
26690;SDS011;14307;51.718;8.938;2022-08-19T10:03:05;27.38;;;25.70;;
26690;SDS011;14307;51.718;8.938;2022-08-19T10:05:33;31.13;;;28.83;;
26690;SDS011;14307;51.718;8.938;2022-08-19T10:08:31;28.92;;;26.92;;
26690;SDS011;14307;51.718;8.938;2022-08-19T10:11:02;29.83;;;27.88;;
26690;SDS011;14307;51.718;8.938;2022-08-19T10:13:50;29.45;;;27.52;;
26690;SDS011;14307;51.718;8.938;2022-08-19T10:16:18;29.10;;;27.00;;
26690;SDS011;14307;51.718;8.938;2022-08-19T10:18:51;28.90;;;26.90;;
26690;SDS011;14307;51.718;8.938;2022-08-19T10:21:26;30.00;;;28.13;;
26690;SDS011;14307;51.718;8.938;2022-08-19T10:23:58;29.08;;;27.00;;
26690;SDS011;14307;51.718;8.938;2022-08-19T10:26:31;28.45;;;26.58;;
26690;SDS011;14307;51.718;8.938;2022-08-19T10:29:01;29.98;;;28.05;;
26690;SDS011;14307;51.718;8.938;2022-08-19T10:31:31;27.63;;;26.05;;
26690;SDS011;14307;51.718;8.938;2022-08-19T10:34:20;28.13;;;26.45;;
26690;SDS011;14307;51.718;8.938;2022-08-19T10:36:53;27.52;;;25.70;;
26690;SDS011;14307;51.718;8.938;2022-08-19T10:39:26;28.88;;;27.10;;
26690;SDS011;14307;51.718;8.938;2022-08-19T10:41:56;27.55;;;25.85;;
26690;SDS011;14307;51.718;8.938;2022-08-19T10:44:23;29.77;;;27.65;;
26690;SDS011;14307;51.718;8.938;2022-08-19T10:46:57;27.70;;;26.00;;
26690;SDS011;14307;51.718;8.938;2022-08-19T10:49:25;28.23;;;26.42;;
26690;SDS011;14307;51.718;8.938;2022-08-19T10:51:53;27.83;;;26.20;;
26690;SDS011;14307;51.718;8.938;2022-08-19T10:54:45;27.52;;;25.85;;
26690;SDS011;14307;51.718;8.938;2022-08-19T10:57:34;27.75;;;26.15;;
26690;SDS011;14307;51.718;8.938;2022-08-19T11:00:21;26.90;;;25.30;;
26690;SDS011;14307;51.718;8.938;2022-08-19T11:02:49;27.02;;;25.42;;
26690;SDS011;14307;51.718;8.938;2022-08-19T11:05:18;27.73;;;26.23;;
26690;SDS011;14307;51.718;8.938;2022-08-19T11:07:49;28.90;;;26.80;;
26690;SDS011;14307;51.718;8.938;2022-08-19T11:10:17;26.85;;;25.20;;
26690;SDS011;14307;51.718;8.938;2022-08-19T11:12:47;26.92;;;25.33;;
26690;SDS011;14307;51.718;8.938;2022-08-19T11:15:14;28.10;;;26.50;;
26690;SDS011;14307;51.718;8.938;2022-08-19T11:17:42;29.88;;;28.08;;
26690;SDS011;14307;51.718;8.938;2022-08-19T11:20:10;29.15;;;27.45;;
26690;SDS011;14307;51.718;8.938;2022-08-19T11:22:38;29.17;;;27.30;;
26690;SDS011;14307;51.718;8.938;2022-08-19T11:25:08;29.67;;;27.63;;
26690;SDS011;14307;51.718;8.938;2022-08-19T11:27:37;29.98;;;28.23;;
26690;SDS011;14307;51.718;8.938;2022-08-19T11:30:09;29.85;;;27.77;;
26690;SDS011;14307;51.718;8.938;2022-08-19T11:32:38;29.38;;;27.65;;
26690;SDS011;14307;51.718;8.938;2022-08-19T11:35:12;29.23;;;27.53;;
26690;SDS011;14307;51.718;8.938;2022-08-19T11:37:39;30.52;;;28.15;;
26690;SDS011;14307;51.718;8.938;2022-08-19T11:40:06;27.98;;;26.15;;
26690;SDS011;14307;51.718;8.938;2022-08-19T11:42:34;30.67;;;28.73;;
26690;SDS011;14307;51.718;8.938;2022-08-19T11:45:19;28.65;;;26.98;;
26690;SDS011;14307;51.718;8.938;2022-08-19T11:47:46;31.17;;;29.30;;
26690;SDS011;14307;51.718;8.938;2022-08-19T11:50:14;32.30;;;30.05;;
26690;SDS011;14307;51.718;8.938;2022-08-19T11:52:41;28.52;;;26.95;;
26690;SDS011;14307;51.718;8.938;2022-08-19T11:55:10;29.92;;;28.13;;
26690;SDS011;14307;51.718;8.938;2022-08-19T11:57:37;29.20;;;27.45;;
26690;SDS011;14307;51.718;8.938;2022-08-19T12:00:05;29.40;;;27.52;;
26690;SDS011;14307;51.718;8.938;2022-08-19T12:02:33;29.80;;;27.85;;
26690;SDS011;14307;51.718;8.938;2022-08-19T12:05:00;28.90;;;27.30;;
26690;SDS011;14307;51.718;8.938;2022-08-19T12:07:29;30.52;;;28.40;;
26690;SDS011;14307;51.718;8.938;2022-08-19T12:09:59;29.73;;;27.80;;
26690;SDS011;14307;51.718;8.938;2022-08-19T12:12:26;31.10;;;29.15;;
26690;SDS011;14307;51.718;8.938;2022-08-19T12:14:54;30.05;;;28.05;;
26690;SDS011;14307;51.718;8.938;2022-08-19T12:17:24;29.50;;;27.48;;
26690;SDS011;14307;51.718;8.938;2022-08-19T12:19:53;29.95;;;28.13;;
26690;SDS011;14307;51.718;8.938;2022-08-19T12:22:20;29.70;;;27.90;;
26690;SDS011;14307;51.718;8.938;2022-08-19T12:24:47;30.27;;;28.33;;
26690;SDS011;14307;51.718;8.938;2022-08-19T12:27:16;31.58;;;29.48;;
26690;SDS011;14307;51.718;8.938;2022-08-19T12:30:04;31.80;;;29.90;;
26690;SDS011;14307;51.718;8.938;2022-08-19T12:32:32;31.02;;;29.02;;
26690;SDS011;14307;51.718;8.938;2022-08-19T12:35:00;30.40;;;28.65;;
26690;SDS011;14307;51.718;8.938;2022-08-19T12:37:27;30.55;;;28.75;;
26690;SDS011;14307;51.718;8.938;2022-08-19T12:39:54;30.98;;;29.15;;
26690;SDS011;14307;51.718;8.938;2022-08-19T12:42:21;31.35;;;29.15;;
26690;SDS011;14307;51.718;8.938;2022-08-19T12:44:48;30.70;;;28.80;;
26690;SDS011;14307;51.718;8.938;2022-08-19T12:47:15;30.65;;;28.75;;
26690;SDS011;14307;51.718;8.938;2022-08-19T12:49:44;32.13;;;29.83;;
26690;SDS011;14307;51.718;8.938;2022-08-19T12:52:21;30.65;;;28.85;;
26690;SDS011;14307;51.718;8.938;2022-08-19T12:54:51;30.98;;;29.17;;
26690;SDS011;14307;51.718;8.938;2022-08-19T12:57:21;31.45;;;29.45;;
26690;SDS011;14307;51.718;8.938;2022-08-19T13:00:12;31.08;;;29.23;;
26690;SDS011;14307;51.718;8.938;2022-08-19T13:02:42;30.98;;;28.95;;
26690;SDS011;14307;51.718;8.938;2022-08-19T13:05:14;31.35;;;29.33;;
26690;SDS011;14307;51.718;8.938;2022-08-19T13:07:46;30.70;;;28.90;;
26690;SDS011;14307;51.718;8.938;2022-08-19T13:10:14;32.38;;;30.25;;
26690;SDS011;14307;51.718;8.938;2022-08-19T13:12:43;31.60;;;29.55;;
26690;SDS011;14307;51.718;8.938;2022-08-19T13:15:11;30.60;;;28.70;;
26690;SDS011;14307;51.718;8.938;2022-08-19T13:17:40;31.30;;;29.40;;
26690;SDS011;14307;51.718;8.938;2022-08-19T13:20:08;31.00;;;28.90;;
26690;SDS011;14307;51.718;8.938;2022-08-19T13:22:36;31.48;;;29.48;;
26690;SDS011;14307;51.718;8.938;2022-08-19T13:25:04;29.77;;;27.98;;
26690;SDS011;14307;51.718;8.938;2022-08-19T13:27:32;29.33;;;27.63;;
26690;SDS011;14307;51.718;8.938;2022-08-19T13:29:59;31.45;;;29.55;;
26690;SDS011;14307;51.718;8.938;2022-08-19T13:32:44;32.33;;;30.33;;
26690;SDS011;14307;51.718;8.938;2022-08-19T13:37:56;29.15;;;27.27;;
26690;SDS011;14307;51.718;8.938;2022-08-19T13:40:24;29.77;;;27.88;;
26690;SDS011;14307;51.718;8.938;2022-08-19T13:42:53;30.38;;;28.30;;
26690;SDS011;14307;51.718;8.938;2022-08-19T13:45:22;30.15;;;28.25;;
26690;SDS011;14307;51.718;8.938;2022-08-19T13:47:51;29.70;;;27.88;;
26690;SDS011;14307;51.718;8.938;2022-08-19T13:50:26;29.58;;;27.67;;
26690;SDS011;14307;51.718;8.938;2022-08-19T13:52:54;30.00;;;28.05;;
26690;SDS011;14307;51.718;8.938;2022-08-19T13:55:22;29.70;;;27.85;;
26690;SDS011;14307;51.718;8.938;2022-08-19T13:57:51;29.10;;;27.30;;
26690;SDS011;14307;51.718;8.938;2022-08-19T14:00:20;29.88;;;28.08;;
26690;SDS011;14307;51.718;8.938;2022-08-19T14:02:50;31.75;;;29.73;;
26690;SDS011;14307;51.718;8.938;2022-08-19T14:05:18;31.23;;;29.42;;
26690;SDS011;14307;51.718;8.938;2022-08-19T14:07:46;29.60;;;27.90;;
26690;SDS011;14307;51.718;8.938;2022-08-19T14:10:14;30.48;;;28.38;;
26690;SDS011;14307;51.718;8.938;2022-08-19T14:12:41;29.30;;;27.25;;
26690;SDS011;14307;51.718;8.938;2022-08-19T14:15:09;28.90;;;27.02;;
26690;SDS011;14307;51.718;8.938;2022-08-19T14:17:38;29.70;;;27.80;;
26690;SDS011;14307;51.718;8.938;2022-08-19T14:20:07;29.50;;;27.48;;
26690;SDS011;14307;51.718;8.938;2022-08-19T14:22:43;29.63;;;27.73;;
26690;SDS011;14307;51.718;8.938;2022-08-19T14:25:11;29.00;;;27.17;;
26690;SDS011;14307;51.718;8.938;2022-08-19T14:27:41;30.05;;;28.02;;
26690;SDS011;14307;51.718;8.938;2022-08-19T14:30:11;28.63;;;26.75;;
26690;SDS011;14307;51.718;8.938;2022-08-19T14:32:40;30.58;;;28.48;;
26690;SDS011;14307;51.718;8.938;2022-08-19T14:35:09;30.40;;;28.50;;
26690;SDS011;14307;51.718;8.938;2022-08-19T14:37:38;29.88;;;27.70;;
26690;SDS011;14307;51.718;8.938;2022-08-19T14:40:22;29.25;;;27.27;;
26690;SDS011;14307;51.718;8.938;2022-08-19T14:42:52;29.20;;;27.10;;
26690;SDS011;14307;51.718;8.938;2022-08-19T14:45:28;27.90;;;26.20;;
26690;SDS011;14307;51.718;8.938;2022-08-19T14:50:28;29.40;;;27.50;;
26690;SDS011;14307;51.718;8.938;2022-08-19T14:53:01;31.10;;;29.00;;
26690;SDS011;14307;51.718;8.938;2022-08-19T14:55:40;30.25;;;28.25;;
26690;SDS011;14307;51.718;8.938;2022-08-19T14:58:11;29.95;;;27.95;;
26690;SDS011;14307;51.718;8.938;2022-08-19T15:00:55;29.40;;;27.48;;
26690;SDS011;14307;51.718;8.938;2022-08-19T15:03:23;29.95;;;27.95;;
26690;SDS011;14307;51.718;8.938;2022-08-19T15:05:50;28.90;;;27.08;;
26690;SDS011;14307;51.718;8.938;2022-08-19T15:08:16;29.85;;;27.95;;